sensor_id;sensor_type;location;lat;lon;timestamp;P1;durP1;ratioP1;P2;durP2;ratioP2
51467;SDS011;37545;45.302;-122.946;2024-02-15T00:00:12;0.70;;;0.30;;
51467;SDS011;37545;45.302;-122.946;2024-02-15T00:02:44;0.77;;;0.43;;
51467;SDS011;37545;45.302;-122.946;2024-02-15T00:05:13;2.42;;;0.80;;
51467;SDS011;37545;45.302;-122.946;2024-02-15T00:07:42;4.70;;;1.38;;
51467;SDS011;37545;45.302;-122.946;2024-02-15T00:10:14;7.23;;;0.57;;
51467;SDS011;37545;45.302;-122.946;2024-02-15T00:12:43;0.50;;;0.43;;
51467;SDS011;37545;45.302;-122.946;2024-02-15T00:15:13;0.43;;;0.40;;
51467;SDS011;37545;45.302;-122.946;2024-02-15T00:17:46;0.77;;;0.55;;
51467;SDS011;37545;45.302;-122.946;2024-02-15T00:20:15;0.90;;;0.50;;
51467;SDS011;37545;45.302;-122.946;2024-02-15T00:22:45;0.65;;;0.50;;
51467;SDS011;37545;45.302;-122.946;2024-02-15T00:25:15;0.90;;;0.60;;
51467;SDS011;37545;45.302;-122.946;2024-02-15T00:27:45;0.70;;;0.57;;
51467;SDS011;37545;45.302;-122.946;2024-02-15T00:30:14;2.38;;;0.65;;
51467;SDS011;37545;45.302;-122.946;2024-02-15T00:32:43;0.75;;;0.68;;
51467;SDS011;37545;45.302;-122.946;2024-02-15T00:35:14;1.00;;;0.52;;
51467;SDS011;37545;45.302;-122.946;2024-02-15T00:37:44;0.50;;;0.40;;
51467;SDS011;37545;45.302;-122.946;2024-02-15T00:40:13;0.70;;;0.52;;
51467;SDS011;37545;45.302;-122.946;2024-02-15T00:42:42;1.40;;;0.68;;
51467;SDS011;37545;45.302;-122.946;2024-02-15T00:45:12;0.90;;;0.47;;
51467;SDS011;37545;45.302;-122.946;2024-02-15T00:47:41;1.27;;;0.65;;
51467;SDS011;37545;45.302;-122.946;2024-02-15T00:50:10;1.63;;;0.57;;
51467;SDS011;37545;45.302;-122.946;2024-02-15T00:52:40;0.95;;;0.40;;
51467;SDS011;37545;45.302;-122.946;2024-02-15T00:55:09;0.47;;;0.40;;
51467;SDS011;37545;45.302;-122.946;2024-02-15T00:57:38;0.57;;;0.50;;
51467;SDS011;37545;45.302;-122.946;2024-02-15T01:00:07;2.95;;;0.80;;
51467;SDS011;37545;45.302;-122.946;2024-02-15T01:02:38;0.77;;;0.52;;
51467;SDS011;37545;45.302;-122.946;2024-02-15T01:05:07;0.85;;;0.50;;
51467;SDS011;37545;45.302;-122.946;2024-02-15T01:07:37;1.35;;;0.50;;
51467;SDS011;37545;45.302;-122.946;2024-02-15T01:10:08;2.80;;;0.70;;
51467;SDS011;37545;45.302;-122.946;2024-02-15T01:12:37;1.13;;;0.70;;
51467;SDS011;37545;45.302;-122.946;2024-02-15T01:15:06;3.72;;;0.93;;
51467;SDS011;37545;45.302;-122.946;2024-02-15T01:17:36;1.48;;;0.77;;
51467;SDS011;37545;45.302;-122.946;2024-02-15T01:20:05;3.17;;;0.75;;
51467;SDS011;37545;45.302;-122.946;2024-02-15T01:22:34;1.08;;;0.98;;
51467;SDS011;37545;45.302;-122.946;2024-02-15T01:25:07;0.93;;;0.50;;
51467;SDS011;37545;45.302;-122.946;2024-02-15T01:27:36;0.50;;;0.40;;
51467;SDS011;37545;45.302;-122.946;2024-02-15T01:30:07;1.65;;;0.70;;
51467;SDS011;37545;45.302;-122.946;2024-02-15T01:32:38;1.05;;;0.60;;
51467;SDS011;37545;45.302;-122.946;2024-02-15T01:35:14;1.83;;;0.50;;
51467;SDS011;37545;45.302;-122.946;2024-02-15T01:37:44;0.88;;;0.70;;
51467;SDS011;37545;45.302;-122.946;2024-02-15T01:40:15;0.70;;;0.60;;
51467;SDS011;37545;45.302;-122.946;2024-02-15T01:42:52;1.10;;;0.60;;
51467;SDS011;37545;45.302;-122.946;2024-02-15T01:45:21;0.60;;;0.50;;
51467;SDS011;37545;45.302;-122.946;2024-02-15T01:47:51;1.05;;;0.60;;
51467;SDS011;37545;45.302;-122.946;2024-02-15T01:50:20;0.70;;;0.57;;
51467;SDS011;37545;45.302;-122.946;2024-02-15T01:52:54;0.43;;;0.43;;
51467;SDS011;37545;45.302;-122.946;2024-02-15T01:55:28;1.05;;;0.57;;
51467;SDS011;37545;45.302;-122.946;2024-02-15T01:57:58;1.45;;;0.82;;
51467;SDS011;37545;45.302;-122.946;2024-02-15T02:00:37;0.98;;;0.70;;
51467;SDS011;37545;45.302;-122.946;2024-02-15T02:03:07;1.00;;;0.50;;
51467;SDS011;37545;45.302;-122.946;2024-02-15T02:05:38;0.40;;;0.40;;
51467;SDS011;37545;45.302;-122.946;2024-02-15T02:08:11;1.33;;;0.60;;
51467;SDS011;37545;45.302;-122.946;2024-02-15T02:10:42;0.55;;;0.50;;
51467;SDS011;37545;45.302;-122.946;2024-02-15T02:13:11;1.55;;;0.85;;
51467;SDS011;37545;45.302;-122.946;2024-02-15T02:15:41;0.95;;;0.70;;
51467;SDS011;37545;45.302;-122.946;2024-02-15T02:18:10;1.10;;;0.57;;
51467;SDS011;37545;45.302;-122.946;2024-02-15T02:20:41;1.38;;;0.75;;
51467;SDS011;37545;45.302;-122.946;2024-02-15T02:23:13;0.68;;;0.45;;
51467;SDS011;37545;45.302;-122.946;2024-02-15T02:25:48;2.25;;;0.60;;
51467;SDS011;37545;45.302;-122.946;2024-02-15T02:28:17;0.98;;;0.50;;
51467;SDS011;37545;45.302;-122.946;2024-02-15T02:30:47;1.85;;;0.55;;
51467;SDS011;37545;45.302;-122.946;2024-02-15T02:33:16;1.10;;;0.80;;
51467;SDS011;37545;45.302;-122.946;2024-02-15T02:35:47;1.40;;;0.75;;
51467;SDS011;37545;45.302;-122.946;2024-02-15T02:38:16;1.00;;;0.57;;
51467;SDS011;37545;45.302;-122.946;2024-02-15T02:40:47;0.63;;;0.47;;
51467;SDS011;37545;45.302;-122.946;2024-02-15T02:43:16;0.85;;;0.60;;
51467;SDS011;37545;45.302;-122.946;2024-02-15T02:45:45;0.75;;;0.60;;
51467;SDS011;37545;45.302;-122.946;2024-02-15T02:48:14;1.42;;;0.70;;
51467;SDS011;37545;45.302;-122.946;2024-02-15T02:50:44;0.73;;;0.40;;
51467;SDS011;37545;45.302;-122.946;2024-02-15T02:53:13;1.27;;;0.90;;
51467;SDS011;37545;45.302;-122.946;2024-02-15T02:55:41;0.82;;;0.55;;
51467;SDS011;37545;45.302;-122.946;2024-02-15T02:58:12;2.45;;;0.57;;
51467;SDS011;37545;45.302;-122.946;2024-02-15T03:00:44;0.73;;;0.50;;
51467;SDS011;37545;45.302;-122.946;2024-02-15T03:03:12;1.33;;;1.02;;
51467;SDS011;37545;45.302;-122.946;2024-02-15T03:05:42;0.95;;;0.90;;
51467;SDS011;37545;45.302;-122.946;2024-02-15T03:10:43;0.95;;;0.50;;
51467;SDS011;37545;45.302;-122.946;2024-02-15T03:13:16;2.25;;;1.05;;
51467;SDS011;37545;45.302;-122.946;2024-02-15T03:15:46;1.63;;;1.02;;
51467;SDS011;37545;45.302;-122.946;2024-02-15T03:18:15;1.25;;;0.82;;
51467;SDS011;37545;45.302;-122.946;2024-02-15T03:20:44;1.05;;;0.80;;
51467;SDS011;37545;45.302;-122.946;2024-02-15T03:23:14;1.10;;;0.70;;
51467;SDS011;37545;45.302;-122.946;2024-02-15T03:25:43;1.35;;;1.00;;
51467;SDS011;37545;45.302;-122.946;2024-02-15T03:28:16;2.30;;;0.80;;
51467;SDS011;37545;45.302;-122.946;2024-02-15T03:30:46;0.90;;;0.70;;
51467;SDS011;37545;45.302;-122.946;2024-02-15T03:33:15;1.58;;;1.10;;
51467;SDS011;37545;45.302;-122.946;2024-02-15T03:35:44;1.50;;;0.70;;
51467;SDS011;37545;45.302;-122.946;2024-02-15T03:38:13;1.80;;;1.05;;
51467;SDS011;37545;45.302;-122.946;2024-02-15T03:40:42;1.33;;;1.00;;
51467;SDS011;37545;45.302;-122.946;2024-02-15T03:43:11;4.00;;;1.38;;
51467;SDS011;37545;45.302;-122.946;2024-02-15T03:45:42;0.88;;;0.73;;
51467;SDS011;37545;45.302;-122.946;2024-02-15T03:48:12;1.38;;;0.63;;
51467;SDS011;37545;45.302;-122.946;2024-02-15T03:50:41;2.08;;;1.17;;
51467;SDS011;37545;45.302;-122.946;2024-02-15T03:53:10;2.53;;;0.80;;
51467;SDS011;37545;45.302;-122.946;2024-02-15T03:55:39;1.85;;;0.82;;
51467;SDS011;37545;45.302;-122.946;2024-02-15T03:58:08;1.85;;;0.85;;
51467;SDS011;37545;45.302;-122.946;2024-02-15T04:00:38;1.08;;;0.75;;
51467;SDS011;37545;45.302;-122.946;2024-02-15T04:03:08;0.90;;;0.60;;
51467;SDS011;37545;45.302;-122.946;2024-02-15T04:05:37;1.80;;;1.13;;
51467;SDS011;37545;45.302;-122.946;2024-02-15T04:08:05;1.77;;;1.17;;
51467;SDS011;37545;45.302;-122.946;2024-02-15T04:10:35;2.78;;;1.83;;
51467;SDS011;37545;45.302;-122.946;2024-02-15T04:13:04;3.55;;;1.70;;
51467;SDS011;37545;45.302;-122.946;2024-02-15T04:15:32;3.38;;;1.70;;
51467;SDS011;37545;45.302;-122.946;2024-02-15T04:18:01;3.78;;;1.70;;
51467;SDS011;37545;45.302;-122.946;2024-02-15T04:20:32;2.17;;;1.27;;
51467;SDS011;37545;45.302;-122.946;2024-02-15T04:23:00;1.50;;;1.30;;
51467;SDS011;37545;45.302;-122.946;2024-02-15T04:25:30;2.80;;;1.20;;
51467;SDS011;37545;45.302;-122.946;2024-02-15T04:27:59;1.40;;;0.85;;
51467;SDS011;37545;45.302;-122.946;2024-02-15T04:30:30;1.75;;;0.75;;
51467;SDS011;37545;45.302;-122.946;2024-02-15T04:33:00;1.05;;;0.70;;
51467;SDS011;37545;45.302;-122.946;2024-02-15T04:35:29;1.00;;;0.70;;
51467;SDS011;37545;45.302;-122.946;2024-02-15T04:37:59;1.95;;;0.60;;
51467;SDS011;37545;45.302;-122.946;2024-02-15T04:40:29;1.48;;;0.60;;
51467;SDS011;37545;45.302;-122.946;2024-02-15T04:42:58;1.33;;;0.60;;
51467;SDS011;37545;45.302;-122.946;2024-02-15T04:45:29;3.90;;;0.80;;
51467;SDS011;37545;45.302;-122.946;2024-02-15T04:47:58;0.50;;;0.45;;
51467;SDS011;37545;45.302;-122.946;2024-02-15T04:50:28;1.23;;;0.65;;
51467;SDS011;37545;45.302;-122.946;2024-02-15T04:52:57;1.00;;;0.80;;
51467;SDS011;37545;45.302;-122.946;2024-02-15T04:55:27;1.45;;;0.63;;
51467;SDS011;37545;45.302;-122.946;2024-02-15T04:57:57;2.70;;;0.90;;
51467;SDS011;37545;45.302;-122.946;2024-02-15T05:00:25;1.40;;;0.68;;
51467;SDS011;37545;45.302;-122.946;2024-02-15T05:02:57;0.90;;;0.65;;
51467;SDS011;37545;45.302;-122.946;2024-02-15T05:05:26;1.27;;;0.75;;
51467;SDS011;37545;45.302;-122.946;2024-02-15T05:07:55;1.20;;;0.75;;
51467;SDS011;37545;45.302;-122.946;2024-02-15T05:10:25;1.85;;;0.93;;
51467;SDS011;37545;45.302;-122.946;2024-02-15T05:12:58;1.70;;;0.75;;
51467;SDS011;37545;45.302;-122.946;2024-02-15T05:15:27;1.85;;;0.95;;
51467;SDS011;37545;45.302;-122.946;2024-02-15T05:17:56;2.10;;;0.98;;
51467;SDS011;37545;45.302;-122.946;2024-02-15T05:20:27;2.08;;;0.77;;
51467;SDS011;37545;45.302;-122.946;2024-02-15T05:22:57;1.17;;;0.80;;
51467;SDS011;37545;45.302;-122.946;2024-02-15T05:25:30;1.23;;;0.68;;
51467;SDS011;37545;45.302;-122.946;2024-02-15T05:27:58;1.73;;;0.82;;
51467;SDS011;37545;45.302;-122.946;2024-02-15T05:30:27;1.13;;;0.63;;
51467;SDS011;37545;45.302;-122.946;2024-02-15T05:32:58;1.08;;;0.57;;
51467;SDS011;37545;45.302;-122.946;2024-02-15T05:35:30;3.77;;;1.73;;
51467;SDS011;37545;45.302;-122.946;2024-02-15T05:37:58;4.60;;;1.60;;
51467;SDS011;37545;45.302;-122.946;2024-02-15T05:40:31;2.22;;;1.05;;
51467;SDS011;37545;45.302;-122.946;2024-02-15T05:43:00;4.80;;;1.27;;
51467;SDS011;37545;45.302;-122.946;2024-02-15T05:45:37;1.17;;;0.73;;
51467;SDS011;37545;45.302;-122.946;2024-02-15T05:48:07;2.00;;;0.60;;
51467;SDS011;37545;45.302;-122.946;2024-02-15T05:50:38;3.28;;;1.10;;
51467;SDS011;37545;45.302;-122.946;2024-02-15T05:53:08;1.85;;;0.98;;
51467;SDS011;37545;45.302;-122.946;2024-02-15T05:55:39;1.65;;;0.70;;
51467;SDS011;37545;45.302;-122.946;2024-02-15T05:58:10;0.88;;;0.60;;
51467;SDS011;37545;45.302;-122.946;2024-02-15T06:00:40;1.10;;;0.60;;
51467;SDS011;37545;45.302;-122.946;2024-02-15T06:03:10;0.60;;;0.40;;
51467;SDS011;37545;45.302;-122.946;2024-02-15T06:05:39;2.25;;;0.98;;
51467;SDS011;37545;45.302;-122.946;2024-02-15T06:08:08;1.30;;;0.65;;
51467;SDS011;37545;45.302;-122.946;2024-02-15T06:10:39;0.47;;;0.25;;
51467;SDS011;37545;45.302;-122.946;2024-02-15T06:13:11;1.08;;;0.63;;
51467;SDS011;37545;45.302;-122.946;2024-02-15T06:15:41;1.70;;;0.50;;
51467;SDS011;37545;45.302;-122.946;2024-02-15T06:18:12;0.60;;;0.60;;
51467;SDS011;37545;45.302;-122.946;2024-02-15T06:20:42;0.30;;;0.23;;
51467;SDS011;37545;45.302;-122.946;2024-02-15T06:23:16;0.75;;;0.60;;
51467;SDS011;37545;45.302;-122.946;2024-02-15T06:25:47;0.40;;;0.38;;
51467;SDS011;37545;45.302;-122.946;2024-02-15T06:28:18;1.20;;;0.57;;
51467;SDS011;37545;45.302;-122.946;2024-02-15T06:31:08;0.47;;;0.30;;
51467;SDS011;37545;45.302;-122.946;2024-02-15T06:33:53;1.15;;;0.35;;
51467;SDS011;37545;45.302;-122.946;2024-02-15T06:36:39;0.43;;;0.30;;
51467;SDS011;37545;45.302;-122.946;2024-02-15T06:39:25;0.82;;;0.38;;
51467;SDS011;37545;45.302;-122.946;2024-02-15T06:42:08;0.40;;;0.30;;
51467;SDS011;37545;45.302;-122.946;2024-02-15T06:44:40;0.90;;;0.47;;
51467;SDS011;37545;45.302;-122.946;2024-02-15T06:47:09;1.48;;;0.57;;
51467;SDS011;37545;45.302;-122.946;2024-02-15T06:49:38;0.30;;;0.25;;
51467;SDS011;37545;45.302;-122.946;2024-02-15T06:52:08;1.58;;;0.60;;
51467;SDS011;37545;45.302;-122.946;2024-02-15T06:54:39;1.95;;;0.30;;
51467;SDS011;37545;45.302;-122.946;2024-02-15T06:57:10;0.60;;;0.30;;
51467;SDS011;37545;45.302;-122.946;2024-02-15T06:59:38;0.35;;;0.30;;
51467;SDS011;37545;45.302;-122.946;2024-02-15T07:02:08;0.85;;;0.45;;
51467;SDS011;37545;45.302;-122.946;2024-02-15T07:04:36;0.65;;;0.38;;
51467;SDS011;37545;45.302;-122.946;2024-02-15T07:07:05;0.73;;;0.40;;
51467;SDS011;37545;45.302;-122.946;2024-02-15T07:09:34;1.23;;;0.20;;
51467;SDS011;37545;45.302;-122.946;2024-02-15T07:12:04;0.65;;;0.40;;
51467;SDS011;37545;45.302;-122.946;2024-02-15T07:14:37;1.13;;;0.40;;
51467;SDS011;37545;45.302;-122.946;2024-02-15T07:17:05;0.60;;;0.40;;
51467;SDS011;37545;45.302;-122.946;2024-02-15T07:19:34;0.30;;;0.30;;
51467;SDS011;37545;45.302;-122.946;2024-02-15T07:22:04;2.58;;;0.20;;
51467;SDS011;37545;45.302;-122.946;2024-02-15T07:24:39;0.43;;;0.30;;
51467;SDS011;37545;45.302;-122.946;2024-02-15T07:27:08;1.35;;;0.30;;
51467;SDS011;37545;45.302;-122.946;2024-02-15T07:29:38;0.65;;;0.50;;
51467;SDS011;37545;45.302;-122.946;2024-02-15T07:32:07;0.65;;;0.25;;
51467;SDS011;37545;45.302;-122.946;2024-02-15T07:34:37;0.20;;;0.15;;
51467;SDS011;37545;45.302;-122.946;2024-02-15T07:37:07;4.38;;;0.38;;
51467;SDS011;37545;45.302;-122.946;2024-02-15T07:39:37;0.40;;;0.25;;
51467;SDS011;37545;45.302;-122.946;2024-02-15T07:42:05;0.20;;;0.20;;
51467;SDS011;37545;45.302;-122.946;2024-02-15T07:44:35;0.35;;;0.20;;
51467;SDS011;37545;45.302;-122.946;2024-02-15T07:47:05;2.72;;;0.32;;
51467;SDS011;37545;45.302;-122.946;2024-02-15T07:49:36;0.50;;;0.30;;
51467;SDS011;37545;45.302;-122.946;2024-02-15T07:52:04;2.53;;;0.20;;
51467;SDS011;37545;45.302;-122.946;2024-02-15T07:54:34;0.90;;;0.30;;
51467;SDS011;37545;45.302;-122.946;2024-02-15T07:57:04;0.57;;;0.20;;
51467;SDS011;37545;45.302;-122.946;2024-02-15T07:59:34;0.00;;;0.00;;
51467;SDS011;37545;45.302;-122.946;2024-02-15T08:02:06;1.85;;;0.40;;
51467;SDS011;37545;45.302;-122.946;2024-02-15T08:04:35;0.30;;;0.20;;
51467;SDS011;37545;45.302;-122.946;2024-02-15T08:07:11;1.58;;;0.20;;
51467;SDS011;37545;45.302;-122.946;2024-02-15T08:09:41;1.05;;;0.30;;
51467;SDS011;37545;45.302;-122.946;2024-02-15T08:12:10;6.55;;;0.20;;
51467;SDS011;37545;45.302;-122.946;2024-02-15T08:14:39;1.27;;;0.30;;
51467;SDS011;37545;45.302;-122.946;2024-02-15T08:17:15;0.20;;;0.20;;
51467;SDS011;37545;45.302;-122.946;2024-02-15T08:19:43;0.20;;;0.10;;
51467;SDS011;37545;45.302;-122.946;2024-02-15T08:22:12;3.20;;;0.25;;
51467;SDS011;37545;45.302;-122.946;2024-02-15T08:24:41;1.55;;;0.13;;
51467;SDS011;37545;45.302;-122.946;2024-02-15T08:27:10;0.22;;;0.10;;
51467;SDS011;37545;45.302;-122.946;2024-02-15T08:29:39;0.43;;;0.17;;
51467;SDS011;37545;45.302;-122.946;2024-02-15T08:32:08;1.05;;;0.20;;
51467;SDS011;37545;45.302;-122.946;2024-02-15T08:34:39;2.72;;;0.22;;
51467;SDS011;37545;45.302;-122.946;2024-02-15T08:37:07;3.83;;;1.00;;
51467;SDS011;37545;45.302;-122.946;2024-02-15T08:39:38;0.20;;;0.10;;
51467;SDS011;37545;45.302;-122.946;2024-02-15T08:42:10;0.20;;;0.10;;
51467;SDS011;37545;45.302;-122.946;2024-02-15T08:44:39;1.33;;;0.15;;
51467;SDS011;37545;45.302;-122.946;2024-02-15T08:47:07;1.17;;;0.32;;
51467;SDS011;37545;45.302;-122.946;2024-02-15T08:49:39;1.77;;;0.50;;
51467;SDS011;37545;45.302;-122.946;2024-02-15T08:52:08;0.57;;;0.10;;
51467;SDS011;37545;45.302;-122.946;2024-02-15T08:54:36;0.38;;;0.20;;
51467;SDS011;37545;45.302;-122.946;2024-02-15T08:57:06;0.98;;;0.10;;
51467;SDS011;37545;45.302;-122.946;2024-02-15T08:59:35;0.38;;;0.30;;
51467;SDS011;37545;45.302;-122.946;2024-02-15T09:02:05;0.22;;;0.22;;
51467;SDS011;37545;45.302;-122.946;2024-02-15T09:04:34;0.45;;;0.30;;
51467;SDS011;37545;45.302;-122.946;2024-02-15T09:07:04;0.30;;;0.28;;
51467;SDS011;37545;45.302;-122.946;2024-02-15T09:09:34;1.43;;;0.20;;
51467;SDS011;37545;45.302;-122.946;2024-02-15T09:12:06;0.10;;;0.10;;
51467;SDS011;37545;45.302;-122.946;2024-02-15T09:14:36;0.20;;;0.10;;
51467;SDS011;37545;45.302;-122.946;2024-02-15T09:17:04;2.33;;;0.10;;
51467;SDS011;37545;45.302;-122.946;2024-02-15T09:19:34;1.25;;;0.30;;
51467;SDS011;37545;45.302;-122.946;2024-02-15T09:22:08;0.77;;;0.28;;
51467;SDS011;37545;45.302;-122.946;2024-02-15T09:24:38;1.00;;;0.40;;
51467;SDS011;37545;45.302;-122.946;2024-02-15T09:27:08;0.00;;;0.00;;
51467;SDS011;37545;45.302;-122.946;2024-02-15T09:29:38;0.13;;;0.10;;
51467;SDS011;37545;45.302;-122.946;2024-02-15T09:32:08;1.48;;;0.38;;
51467;SDS011;37545;45.302;-122.946;2024-02-15T09:34:36;1.08;;;0.10;;
51467;SDS011;37545;45.302;-122.946;2024-02-15T09:37:07;0.25;;;0.10;;
51467;SDS011;37545;45.302;-122.946;2024-02-15T09:39:36;0.10;;;0.00;;
51467;SDS011;37545;45.302;-122.946;2024-02-15T09:42:05;0.00;;;0.00;;
51467;SDS011;37545;45.302;-122.946;2024-02-15T09:44:36;1.85;;;0.10;;
51467;SDS011;37545;45.302;-122.946;2024-02-15T09:47:06;0.15;;;0.15;;
51467;SDS011;37545;45.302;-122.946;2024-02-15T09:49:37;0.10;;;0.00;;
51467;SDS011;37545;45.302;-122.946;2024-02-15T09:52:09;0.17;;;0.10;;
51467;SDS011;37545;45.302;-122.946;2024-02-15T09:54:43;0.98;;;0.10;;
51467;SDS011;37545;45.302;-122.946;2024-02-15T09:57:13;0.00;;;0.00;;
51467;SDS011;37545;45.302;-122.946;2024-02-15T09:59:43;1.40;;;0.13;;
51467;SDS011;37545;45.302;-122.946;2024-02-15T10:02:18;0.05;;;0.00;;
51467;SDS011;37545;45.302;-122.946;2024-02-15T10:04:48;0.00;;;0.00;;
51467;SDS011;37545;45.302;-122.946;2024-02-15T10:07:19;0.05;;;0.00;;
51467;SDS011;37545;45.302;-122.946;2024-02-15T10:09:48;0.28;;;0.10;;
51467;SDS011;37545;45.302;-122.946;2024-02-15T10:12:17;0.57;;;0.05;;
51467;SDS011;37545;45.302;-122.946;2024-02-15T10:14:50;0.10;;;0.10;;
51467;SDS011;37545;45.302;-122.946;2024-02-15T10:17:19;0.00;;;0.00;;
51467;SDS011;37545;45.302;-122.946;2024-02-15T10:20:03;0.15;;;0.00;;
51467;SDS011;37545;45.302;-122.946;2024-02-15T10:22:37;0.10;;;0.10;;
51467;SDS011;37545;45.302;-122.946;2024-02-15T10:25:15;0.40;;;0.10;;
51467;SDS011;37545;45.302;-122.946;2024-02-15T10:27:44;0.32;;;0.20;;
51467;SDS011;37545;45.302;-122.946;2024-02-15T10:30:16;0.88;;;0.20;;
51467;SDS011;37545;45.302;-122.946;2024-02-15T10:32:46;2.53;;;0.10;;
51467;SDS011;37545;45.302;-122.946;2024-02-15T10:35:24;0.38;;;0.05;;
51467;SDS011;37545;45.302;-122.946;2024-02-15T10:38:05;3.08;;;0.10;;
51467;SDS011;37545;45.302;-122.946;2024-02-15T10:40:35;0.00;;;0.00;;
51467;SDS011;37545;45.302;-122.946;2024-02-15T10:43:08;0.10;;;0.10;;
51467;SDS011;37545;45.302;-122.946;2024-02-15T10:45:39;0.17;;;0.10;;
51467;SDS011;37545;45.302;-122.946;2024-02-15T10:48:08;1.02;;;0.20;;
51467;SDS011;37545;45.302;-122.946;2024-02-15T10:50:42;0.00;;;0.00;;
51467;SDS011;37545;45.302;-122.946;2024-02-15T10:53:20;0.30;;;0.30;;
51467;SDS011;37545;45.302;-122.946;2024-02-15T10:55:53;0.00;;;0.00;;
51467;SDS011;37545;45.302;-122.946;2024-02-15T10:58:33;0.20;;;0.10;;
51467;SDS011;37545;45.302;-122.946;2024-02-15T11:01:11;0.15;;;0.10;;
51467;SDS011;37545;45.302;-122.946;2024-02-15T11:03:44;0.55;;;0.20;;
51467;SDS011;37545;45.302;-122.946;2024-02-15T11:06:20;0.13;;;0.08;;
51467;SDS011;37545;45.302;-122.946;2024-02-15T11:08:53;0.00;;;0.00;;
51467;SDS011;37545;45.302;-122.946;2024-02-15T11:11:26;0.88;;;0.00;;
51467;SDS011;37545;45.302;-122.946;2024-02-15T11:16:57;0.00;;;0.00;;
51467;SDS011;37545;45.302;-122.946;2024-02-15T11:19:40;1.08;;;0.20;;
51467;SDS011;37545;45.302;-122.946;2024-02-15T11:22:13;0.57;;;0.00;;
51467;SDS011;37545;45.302;-122.946;2024-02-15T11:27:32;0.30;;;0.15;;
51467;SDS011;37545;45.302;-122.946;2024-02-15T11:30:02;0.85;;;0.28;;
51467;SDS011;37545;45.302;-122.946;2024-02-15T11:32:35;0.25;;;0.15;;
51467;SDS011;37545;45.302;-122.946;2024-02-15T11:35:09;0.10;;;0.10;;
51467;SDS011;37545;45.302;-122.946;2024-02-15T11:37:52;0.13;;;0.00;;
51467;SDS011;37545;45.302;-122.946;2024-02-15T11:46:25;0.10;;;0.10;;
51467;SDS011;37545;45.302;-122.946;2024-02-15T11:49:01;0.20;;;0.05;;
51467;SDS011;37545;45.302;-122.946;2024-02-15T11:51:34;0.10;;;0.00;;
51467;SDS011;37545;45.302;-122.946;2024-02-15T11:54:08;0.13;;;0.10;;
51467;SDS011;37545;45.302;-122.946;2024-02-15T11:56:52;0.10;;;0.00;;
51467;SDS011;37545;45.302;-122.946;2024-02-15T12:02:19;0.52;;;0.05;;
51467;SDS011;37545;45.302;-122.946;2024-02-15T12:05:05;0.00;;;0.00;;
51467;SDS011;37545;45.302;-122.946;2024-02-15T12:07:51;0.10;;;0.00;;
51467;SDS011;37545;45.302;-122.946;2024-02-15T12:10:37;0.22;;;0.13;;
51467;SDS011;37545;45.302;-122.946;2024-02-15T12:13:33;4.03;;;0.30;;
51467;SDS011;37545;45.302;-122.946;2024-02-15T12:16:19;0.10;;;0.10;;
51467;SDS011;37545;45.302;-122.946;2024-02-15T12:19:06;0.00;;;0.00;;
51467;SDS011;37545;45.302;-122.946;2024-02-15T12:21:38;0.20;;;0.10;;
51467;SDS011;37545;45.302;-122.946;2024-02-15T12:24:07;0.00;;;0.00;;
51467;SDS011;37545;45.302;-122.946;2024-02-15T12:26:37;0.60;;;0.20;;
51467;SDS011;37545;45.302;-122.946;2024-02-15T12:29:15;0.10;;;0.03;;
51467;SDS011;37545;45.302;-122.946;2024-02-15T12:31:45;0.25;;;0.10;;
51467;SDS011;37545;45.302;-122.946;2024-02-15T12:34:14;0.40;;;0.40;;
51467;SDS011;37545;45.302;-122.946;2024-02-15T12:36:50;0.00;;;0.00;;
51467;SDS011;37545;45.302;-122.946;2024-02-15T12:39:34;0.17;;;0.10;;
51467;SDS011;37545;45.302;-122.946;2024-02-15T12:42:06;0.70;;;0.20;;
51467;SDS011;37545;45.302;-122.946;2024-02-15T12:44:41;0.90;;;0.10;;
51467;SDS011;37545;45.302;-122.946;2024-02-15T12:47:20;1.05;;;0.17;;
51467;SDS011;37545;45.302;-122.946;2024-02-15T12:49:50;0.22;;;0.05;;
51467;SDS011;37545;45.302;-122.946;2024-02-15T12:52:40;0.20;;;0.17;;
51467;SDS011;37545;45.302;-122.946;2024-02-15T12:55:10;1.45;;;0.13;;
51467;SDS011;37545;45.302;-122.946;2024-02-15T12:57:43;0.00;;;0.00;;
51467;SDS011;37545;45.302;-122.946;2024-02-15T13:00:18;0.20;;;0.00;;
51467;SDS011;37545;45.302;-122.946;2024-02-15T13:02:48;0.00;;;0.00;;
51467;SDS011;37545;45.302;-122.946;2024-02-15T13:05:19;0.25;;;0.10;;
51467;SDS011;37545;45.302;-122.946;2024-02-15T13:07:49;0.00;;;0.00;;
51467;SDS011;37545;45.302;-122.946;2024-02-15T13:10:18;0.22;;;0.10;;
51467;SDS011;37545;45.302;-122.946;2024-02-15T13:12:47;0.20;;;0.05;;
51467;SDS011;37545;45.302;-122.946;2024-02-15T13:15:18;0.10;;;0.10;;
51467;SDS011;37545;45.302;-122.946;2024-02-15T13:17:53;0.77;;;0.00;;
51467;SDS011;37545;45.302;-122.946;2024-02-15T13:20:22;0.55;;;0.03;;
51467;SDS011;37545;45.302;-122.946;2024-02-15T13:22:58;1.30;;;0.10;;
51467;SDS011;37545;45.302;-122.946;2024-02-15T13:25:34;0.00;;;0.00;;
51467;SDS011;37545;45.302;-122.946;2024-02-15T13:28:05;0.20;;;0.08;;
51467;SDS011;37545;45.302;-122.946;2024-02-15T13:30:36;0.40;;;0.20;;
51467;SDS011;37545;45.302;-122.946;2024-02-15T13:33:08;0.30;;;0.13;;
51467;SDS011;37545;45.302;-122.946;2024-02-15T13:35:37;0.88;;;0.30;;
51467;SDS011;37545;45.302;-122.946;2024-02-15T13:38:06;0.00;;;0.00;;
51467;SDS011;37545;45.302;-122.946;2024-02-15T13:40:40;1.20;;;0.28;;
51467;SDS011;37545;45.302;-122.946;2024-02-15T13:43:15;2.38;;;0.20;;
51467;SDS011;37545;45.302;-122.946;2024-02-15T13:45:45;0.00;;;0.00;;
51467;SDS011;37545;45.302;-122.946;2024-02-15T13:48:15;1.52;;;0.10;;
51467;SDS011;37545;45.302;-122.946;2024-02-15T13:52:01;3.28;;;0.35;;
51467;SDS011;37545;45.302;-122.946;2024-02-15T13:54:09;0.10;;;0.08;;
51467;SDS011;37545;45.302;-122.946;2024-02-15T13:56:45;2.63;;;0.20;;
51467;SDS011;37545;45.302;-122.946;2024-02-15T13:59:14;0.10;;;0.10;;
51467;SDS011;37545;45.302;-122.946;2024-02-15T14:01:48;0.75;;;0.10;;
51467;SDS011;37545;45.302;-122.946;2024-02-15T14:04:24;0.50;;;0.25;;
51467;SDS011;37545;45.302;-122.946;2024-02-15T14:06:53;1.13;;;0.30;;
51467;SDS011;37545;45.302;-122.946;2024-02-15T14:09:22;1.65;;;0.43;;
51467;SDS011;37545;45.302;-122.946;2024-02-15T14:11:52;0.50;;;0.13;;
51467;SDS011;37545;45.302;-122.946;2024-02-15T14:14:24;0.55;;;0.25;;
51467;SDS011;37545;45.302;-122.946;2024-02-15T14:16:54;0.80;;;0.25;;
51467;SDS011;37545;45.302;-122.946;2024-02-15T14:19:23;0.25;;;0.20;;
51467;SDS011;37545;45.302;-122.946;2024-02-15T14:21:55;0.20;;;0.10;;
51467;SDS011;37545;45.302;-122.946;2024-02-15T14:24:34;3.60;;;1.25;;
51467;SDS011;37545;45.302;-122.946;2024-02-15T14:27:04;3.33;;;0.20;;
51467;SDS011;37545;45.302;-122.946;2024-02-15T14:29:33;0.40;;;0.30;;
51467;SDS011;37545;45.302;-122.946;2024-02-15T14:32:06;2.17;;;0.20;;
51467;SDS011;37545;45.302;-122.946;2024-02-15T14:34:51;1.48;;;0.40;;
51467;SDS011;37545;45.302;-122.946;2024-02-15T14:37:25;1.83;;;0.32;;
51467;SDS011;37545;45.302;-122.946;2024-02-15T14:39:54;0.60;;;0.47;;
51467;SDS011;37545;45.302;-122.946;2024-02-15T14:42:22;1.45;;;0.30;;
51467;SDS011;37545;45.302;-122.946;2024-02-15T14:44:52;0.60;;;0.40;;
51467;SDS011;37545;45.302;-122.946;2024-02-15T14:47:25;0.93;;;0.32;;
51467;SDS011;37545;45.302;-122.946;2024-02-15T14:49:53;1.55;;;0.40;;